sensor_id;sensor_type;location;lat;lon;timestamp;P1;durP1;ratioP1;P2;durP2;ratioP2
61250;SDS011;47126;47.508;8.590;2023-10-19T00:00:40;32.00;;;17.73;;
61250;SDS011;47126;47.508;8.590;2023-10-19T00:03:16;30.88;;;17.23;;
61250;SDS011;47126;47.508;8.590;2023-10-19T00:05:43;30.60;;;18.25;;
61250;SDS011;47126;47.508;8.590;2023-10-19T00:08:12;31.42;;;17.75;;
61250;SDS011;47126;47.508;8.590;2023-10-19T00:10:49;33.83;;;18.33;;
61250;SDS011;47126;47.508;8.590;2023-10-19T00:13:27;35.20;;;18.17;;
61250;SDS011;47126;47.508;8.590;2023-10-19T00:15:54;32.08;;;17.38;;
61250;SDS011;47126;47.508;8.590;2023-10-19T00:18:22;30.88;;;17.67;;
61250;SDS011;47126;47.508;8.590;2023-10-19T00:20:53;29.40;;;16.67;;
61250;SDS011;47126;47.508;8.590;2023-10-19T00:23:20;28.08;;;16.60;;
61250;SDS011;47126;47.508;8.590;2023-10-19T00:26:05;29.65;;;17.40;;
61250;SDS011;47126;47.508;8.590;2023-10-19T00:28:35;30.92;;;17.13;;
61250;SDS011;47126;47.508;8.590;2023-10-19T00:31:03;29.55;;;17.30;;
61250;SDS011;47126;47.508;8.590;2023-10-19T00:33:33;32.97;;;17.45;;
61250;SDS011;47126;47.508;8.590;2023-10-19T00:36:03;27.13;;;16.33;;
61250;SDS011;47126;47.508;8.590;2023-10-19T00:38:33;28.83;;;16.10;;
61250;SDS011;47126;47.508;8.590;2023-10-19T00:41:02;29.10;;;16.70;;
61250;SDS011;47126;47.508;8.590;2023-10-19T00:43:32;32.42;;;17.10;;
61250;SDS011;47126;47.508;8.590;2023-10-19T00:46:03;31.88;;;18.45;;
61250;SDS011;47126;47.508;8.590;2023-10-19T00:48:34;28.88;;;16.45;;
61250;SDS011;47126;47.508;8.590;2023-10-19T00:51:00;29.60;;;16.88;;
61250;SDS011;47126;47.508;8.590;2023-10-19T00:53:48;29.23;;;16.27;;
61250;SDS011;47126;47.508;8.590;2023-10-19T00:56:14;27.58;;;16.33;;
61250;SDS011;47126;47.508;8.590;2023-10-19T00:58:45;30.00;;;16.88;;
61250;SDS011;47126;47.508;8.590;2023-10-19T01:01:19;29.23;;;16.17;;
61250;SDS011;47126;47.508;8.590;2023-10-19T01:03:45;29.63;;;16.88;;
61250;SDS011;47126;47.508;8.590;2023-10-19T01:06:17;30.35;;;17.30;;
61250;SDS011;47126;47.508;8.590;2023-10-19T01:08:45;27.95;;;16.05;;
61250;SDS011;47126;47.508;8.590;2023-10-19T01:11:11;27.42;;;16.77;;
61250;SDS011;47126;47.508;8.590;2023-10-19T01:13:40;31.48;;;17.55;;
61250;SDS011;47126;47.508;8.590;2023-10-19T01:16:13;27.42;;;15.93;;
61250;SDS011;47126;47.508;8.590;2023-10-19T01:18:54;34.10;;;18.05;;
61250;SDS011;47126;47.508;8.590;2023-10-19T01:21:24;32.85;;;18.42;;
61250;SDS011;47126;47.508;8.590;2023-10-19T01:24:05;29.23;;;18.05;;
61250;SDS011;47126;47.508;8.590;2023-10-19T01:26:32;28.48;;;16.30;;
61250;SDS011;47126;47.508;8.590;2023-10-19T01:29:02;31.33;;;17.75;;
61250;SDS011;47126;47.508;8.590;2023-10-19T01:31:38;31.52;;;17.83;;
61250;SDS011;47126;47.508;8.590;2023-10-19T01:34:16;33.03;;;19.00;;
61250;SDS011;47126;47.508;8.590;2023-10-19T01:36:45;32.47;;;17.63;;
61250;SDS011;47126;47.508;8.590;2023-10-19T01:39:15;37.50;;;18.83;;
61250;SDS011;47126;47.508;8.590;2023-10-19T01:41:43;29.65;;;17.30;;
61250;SDS011;47126;47.508;8.590;2023-10-19T01:44:10;30.52;;;18.08;;
61250;SDS011;47126;47.508;8.590;2023-10-19T01:46:40;32.08;;;18.80;;
61250;SDS011;47126;47.508;8.590;2023-10-19T01:49:09;32.63;;;17.92;;
61250;SDS011;47126;47.508;8.590;2023-10-19T01:51:35;36.08;;;17.98;;
61250;SDS011;47126;47.508;8.590;2023-10-19T01:54:07;32.67;;;19.25;;
61250;SDS011;47126;47.508;8.590;2023-10-19T01:56:33;32.88;;;18.00;;
61250;SDS011;47126;47.508;8.590;2023-10-19T01:59:01;33.20;;;18.10;;
61250;SDS011;47126;47.508;8.590;2023-10-19T02:01:27;31.75;;;18.40;;
61250;SDS011;47126;47.508;8.590;2023-10-19T02:03:53;39.83;;;19.20;;
61250;SDS011;47126;47.508;8.590;2023-10-19T02:06:22;39.38;;;20.30;;
61250;SDS011;47126;47.508;8.590;2023-10-19T02:09:13;35.33;;;19.90;;
61250;SDS011;47126;47.508;8.590;2023-10-19T02:11:48;34.10;;;18.55;;
61250;SDS011;47126;47.508;8.590;2023-10-19T02:14:15;30.73;;;18.70;;
61250;SDS011;47126;47.508;8.590;2023-10-19T02:16:45;35.20;;;18.73;;
61250;SDS011;47126;47.508;8.590;2023-10-19T02:19:18;33.55;;;18.25;;
61250;SDS011;47126;47.508;8.590;2023-10-19T02:21:47;36.55;;;19.30;;
61250;SDS011;47126;47.508;8.590;2023-10-19T02:24:14;35.17;;;19.98;;
61250;SDS011;47126;47.508;8.590;2023-10-19T02:26:41;36.25;;;19.77;;
61250;SDS011;47126;47.508;8.590;2023-10-19T02:29:07;37.53;;;20.23;;
61250;SDS011;47126;47.508;8.590;2023-10-19T02:31:34;34.40;;;18.92;;
61250;SDS011;47126;47.508;8.590;2023-10-19T02:34:02;36.60;;;19.38;;
61250;SDS011;47126;47.508;8.590;2023-10-19T02:36:30;34.35;;;18.95;;
61250;SDS011;47126;47.508;8.590;2023-10-19T02:38:57;37.15;;;19.33;;
61250;SDS011;47126;47.508;8.590;2023-10-19T02:41:32;37.60;;;19.10;;
61250;SDS011;47126;47.508;8.590;2023-10-19T02:44:01;34.92;;;18.13;;
61250;SDS011;47126;47.508;8.590;2023-10-19T02:46:33;31.85;;;17.30;;
61250;SDS011;47126;47.508;8.590;2023-10-19T02:49:00;29.90;;;18.42;;
61250;SDS011;47126;47.508;8.590;2023-10-19T02:51:26;32.08;;;17.42;;
61250;SDS011;47126;47.508;8.590;2023-10-19T02:53:52;31.20;;;17.75;;
61250;SDS011;47126;47.508;8.590;2023-10-19T02:56:18;38.05;;;19.50;;
61250;SDS011;47126;47.508;8.590;2023-10-19T02:58:45;37.63;;;21.30;;
61250;SDS011;47126;47.508;8.590;2023-10-19T03:01:15;37.03;;;18.67;;
61250;SDS011;47126;47.508;8.590;2023-10-19T03:03:44;34.80;;;19.63;;
61250;SDS011;47126;47.508;8.590;2023-10-19T03:06:11;35.45;;;18.95;;
61250;SDS011;47126;47.508;8.590;2023-10-19T03:08:37;35.53;;;19.23;;
61250;SDS011;47126;47.508;8.590;2023-10-19T03:11:03;34.50;;;19.58;;
61250;SDS011;47126;47.508;8.590;2023-10-19T03:13:29;36.30;;;19.33;;
61250;SDS011;47126;47.508;8.590;2023-10-19T03:15:57;35.75;;;19.17;;
61250;SDS011;47126;47.508;8.590;2023-10-19T03:18:24;37.33;;;19.27;;
61250;SDS011;47126;47.508;8.590;2023-10-19T03:20:51;34.47;;;18.50;;
61250;SDS011;47126;47.508;8.590;2023-10-19T03:23:17;37.42;;;19.50;;
61250;SDS011;47126;47.508;8.590;2023-10-19T03:25:43;32.15;;;18.67;;
61250;SDS011;47126;47.508;8.590;2023-10-19T03:28:29;30.15;;;17.08;;
61250;SDS011;47126;47.508;8.590;2023-10-19T03:31:00;32.65;;;18.08;;
61250;SDS011;47126;47.508;8.590;2023-10-19T03:33:26;31.00;;;17.48;;
61250;SDS011;47126;47.508;8.590;2023-10-19T03:35:53;32.53;;;17.73;;
61250;SDS011;47126;47.508;8.590;2023-10-19T03:38:19;29.63;;;17.15;;
61250;SDS011;47126;47.508;8.590;2023-10-19T03:40:47;27.17;;;16.08;;
61250;SDS011;47126;47.508;8.590;2023-10-19T03:43:20;31.27;;;17.13;;
61250;SDS011;47126;47.508;8.590;2023-10-19T03:45:52;31.08;;;17.30;;
61250;SDS011;47126;47.508;8.590;2023-10-19T03:48:18;30.08;;;18.30;;
61250;SDS011;47126;47.508;8.590;2023-10-19T03:51:03;31.75;;;18.13;;
61250;SDS011;47126;47.508;8.590;2023-10-19T03:53:30;34.75;;;17.38;;
61250;SDS011;47126;47.508;8.590;2023-10-19T03:55:57;28.52;;;16.50;;
61250;SDS011;47126;47.508;8.590;2023-10-19T03:58:28;30.05;;;16.52;;
61250;SDS011;47126;47.508;8.590;2023-10-19T04:00:55;29.15;;;15.73;;
61250;SDS011;47126;47.508;8.590;2023-10-19T04:03:26;30.65;;;17.10;;
61250;SDS011;47126;47.508;8.590;2023-10-19T04:05:56;30.33;;;16.90;;
61250;SDS011;47126;47.508;8.590;2023-10-19T04:08:26;29.75;;;17.05;;
61250;SDS011;47126;47.508;8.590;2023-10-19T04:10:56;27.25;;;16.00;;
61250;SDS011;47126;47.508;8.590;2023-10-19T04:13:36;30.95;;;18.17;;
61250;SDS011;47126;47.508;8.590;2023-10-19T04:16:02;29.27;;;17.10;;
61250;SDS011;47126;47.508;8.590;2023-10-19T04:18:28;31.27;;;16.98;;
61250;SDS011;47126;47.508;8.590;2023-10-19T04:20:54;29.85;;;17.45;;
61250;SDS011;47126;47.508;8.590;2023-10-19T04:23:21;33.60;;;17.73;;
61250;SDS011;47126;47.508;8.590;2023-10-19T04:25:52;32.78;;;18.55;;
61250;SDS011;47126;47.508;8.590;2023-10-19T04:28:21;32.55;;;18.60;;
61250;SDS011;47126;47.508;8.590;2023-10-19T04:30:55;31.60;;;17.95;;
61250;SDS011;47126;47.508;8.590;2023-10-19T04:33:21;29.35;;;16.55;;
61250;SDS011;47126;47.508;8.590;2023-10-19T04:35:52;30.33;;;17.73;;
61250;SDS011;47126;47.508;8.590;2023-10-19T04:38:20;29.80;;;17.73;;
61250;SDS011;47126;47.508;8.590;2023-10-19T04:40:46;31.00;;;17.50;;
61250;SDS011;47126;47.508;8.590;2023-10-19T04:43:12;29.58;;;17.35;;
61250;SDS011;47126;47.508;8.590;2023-10-19T04:45:42;32.78;;;17.60;;
61250;SDS011;47126;47.508;8.590;2023-10-19T04:48:09;34.28;;;18.58;;
61250;SDS011;47126;47.508;8.590;2023-10-19T04:50:35;30.30;;;17.05;;
61250;SDS011;47126;47.508;8.590;2023-10-19T04:53:02;32.97;;;18.13;;
61250;SDS011;47126;47.508;8.590;2023-10-19T04:55:31;34.85;;;19.88;;
61250;SDS011;47126;47.508;8.590;2023-10-19T04:57:57;35.67;;;20.30;;
61250;SDS011;47126;47.508;8.590;2023-10-19T05:00:23;38.92;;;20.83;;
61250;SDS011;47126;47.508;8.590;2023-10-19T05:02:50;33.88;;;18.83;;
61250;SDS011;47126;47.508;8.590;2023-10-19T05:05:17;37.60;;;19.33;;
61250;SDS011;47126;47.508;8.590;2023-10-19T05:07:43;34.33;;;18.80;;
61250;SDS011;47126;47.508;8.590;2023-10-19T05:10:09;32.88;;;18.40;;
61250;SDS011;47126;47.508;8.590;2023-10-19T05:12:36;33.88;;;19.27;;
61250;SDS011;47126;47.508;8.590;2023-10-19T05:15:02;36.05;;;18.48;;
61250;SDS011;47126;47.508;8.590;2023-10-19T05:17:30;33.05;;;18.70;;
61250;SDS011;47126;47.508;8.590;2023-10-19T05:19:56;31.02;;;18.35;;
61250;SDS011;47126;47.508;8.590;2023-10-19T05:22:23;34.28;;;19.00;;
61250;SDS011;47126;47.508;8.590;2023-10-19T05:24:54;33.90;;;18.63;;
61250;SDS011;47126;47.508;8.590;2023-10-19T05:27:20;33.25;;;18.20;;
61250;SDS011;47126;47.508;8.590;2023-10-19T05:29:47;33.17;;;18.38;;
61250;SDS011;47126;47.508;8.590;2023-10-19T05:32:13;38.50;;;19.80;;
61250;SDS011;47126;47.508;8.590;2023-10-19T05:34:39;34.00;;;19.63;;
61250;SDS011;47126;47.508;8.590;2023-10-19T05:37:05;37.22;;;18.40;;
61250;SDS011;47126;47.508;8.590;2023-10-19T05:39:33;33.92;;;19.80;;
61250;SDS011;47126;47.508;8.590;2023-10-19T05:42:01;34.90;;;19.98;;
61250;SDS011;47126;47.508;8.590;2023-10-19T05:44:30;38.05;;;18.88;;
61250;SDS011;47126;47.508;8.590;2023-10-19T05:46:56;32.60;;;19.15;;
61250;SDS011;47126;47.508;8.590;2023-10-19T05:49:23;34.55;;;19.15;;
61250;SDS011;47126;47.508;8.590;2023-10-19T05:51:50;36.35;;;19.00;;
61250;SDS011;47126;47.508;8.590;2023-10-19T05:54:16;38.30;;;19.48;;
61250;SDS011;47126;47.508;8.590;2023-10-19T05:56:42;39.38;;;20.58;;
61250;SDS011;47126;47.508;8.590;2023-10-19T05:59:08;34.80;;;18.70;;
61250;SDS011;47126;47.508;8.590;2023-10-19T06:01:35;33.42;;;19.63;;
61250;SDS011;47126;47.508;8.590;2023-10-19T06:04:06;35.85;;;19.88;;
61250;SDS011;47126;47.508;8.590;2023-10-19T06:06:32;33.05;;;18.55;;
61250;SDS011;47126;47.508;8.590;2023-10-19T06:08:58;32.95;;;17.35;;
61250;SDS011;47126;47.508;8.590;2023-10-19T06:11:28;32.05;;;18.85;;
61250;SDS011;47126;47.508;8.590;2023-10-19T06:13:57;36.28;;;19.52;;
61250;SDS011;47126;47.508;8.590;2023-10-19T06:16:23;32.90;;;18.90;;
61250;SDS011;47126;47.508;8.590;2023-10-19T06:18:49;67.82;;;30.38;;
61250;SDS011;47126;47.508;8.590;2023-10-19T06:21:17;112.68;;;45.08;;
61250;SDS011;47126;47.508;8.590;2023-10-19T06:23:44;61.17;;;28.42;;
61250;SDS011;47126;47.508;8.590;2023-10-19T06:26:11;46.25;;;22.63;;
61250;SDS011;47126;47.508;8.590;2023-10-19T06:28:37;34.92;;;17.98;;
61250;SDS011;47126;47.508;8.590;2023-10-19T06:31:04;33.15;;;18.83;;
61250;SDS011;47126;47.508;8.590;2023-10-19T06:33:31;37.40;;;19.70;;
61250;SDS011;47126;47.508;8.590;2023-10-19T06:36:01;31.25;;;18.10;;
61250;SDS011;47126;47.508;8.590;2023-10-19T06:38:28;34.67;;;18.33;;
61250;SDS011;47126;47.508;8.590;2023-10-19T06:40:54;35.63;;;19.08;;
61250;SDS011;47126;47.508;8.590;2023-10-19T06:43:21;33.90;;;18.33;;
61250;SDS011;47126;47.508;8.590;2023-10-19T06:45:52;32.90;;;18.75;;
61250;SDS011;47126;47.508;8.590;2023-10-19T06:48:20;38.72;;;18.88;;
61250;SDS011;47126;47.508;8.590;2023-10-19T06:50:46;33.72;;;18.30;;
61250;SDS011;47126;47.508;8.590;2023-10-19T06:53:12;36.72;;;19.42;;
61250;SDS011;47126;47.508;8.590;2023-10-19T06:55:38;33.28;;;18.85;;
61250;SDS011;47126;47.508;8.590;2023-10-19T06:58:05;35.83;;;19.15;;
61250;SDS011;47126;47.508;8.590;2023-10-19T07:00:39;35.58;;;19.05;;
61250;SDS011;47126;47.508;8.590;2023-10-19T07:03:07;31.02;;;17.52;;
61250;SDS011;47126;47.508;8.590;2023-10-19T07:05:33;31.35;;;17.63;;
61250;SDS011;47126;47.508;8.590;2023-10-19T07:07:59;31.30;;;18.58;;
61250;SDS011;47126;47.508;8.590;2023-10-19T07:10:27;34.17;;;18.90;;
61250;SDS011;47126;47.508;8.590;2023-10-19T07:12:54;37.08;;;19.80;;
61250;SDS011;47126;47.508;8.590;2023-10-19T07:15:21;34.65;;;18.15;;
61250;SDS011;47126;47.508;8.590;2023-10-19T07:17:47;31.67;;;18.50;;
61250;SDS011;47126;47.508;8.590;2023-10-19T07:20:15;35.83;;;19.98;;
61250;SDS011;47126;47.508;8.590;2023-10-19T07:23:02;33.97;;;18.00;;
61250;SDS011;47126;47.508;8.590;2023-10-19T07:25:35;33.47;;;18.08;;
61250;SDS011;47126;47.508;8.590;2023-10-19T07:28:13;37.72;;;19.63;;
61250;SDS011;47126;47.508;8.590;2023-10-19T07:30:40;34.33;;;17.88;;
61250;SDS011;47126;47.508;8.590;2023-10-19T07:33:09;32.95;;;18.05;;
61250;SDS011;47126;47.508;8.590;2023-10-19T07:35:36;33.40;;;18.05;;
61250;SDS011;47126;47.508;8.590;2023-10-19T07:38:04;32.90;;;17.10;;
61250;SDS011;47126;47.508;8.590;2023-10-19T07:40:32;30.27;;;17.73;;
61250;SDS011;47126;47.508;8.590;2023-10-19T07:42:58;29.42;;;16.77;;
61250;SDS011;47126;47.508;8.590;2023-10-19T07:45:24;28.73;;;16.63;;
61250;SDS011;47126;47.508;8.590;2023-10-19T07:47:50;30.90;;;17.55;;
61250;SDS011;47126;47.508;8.590;2023-10-19T07:50:17;32.20;;;18.23;;
61250;SDS011;47126;47.508;8.590;2023-10-19T07:52:43;29.30;;;17.42;;
61250;SDS011;47126;47.508;8.590;2023-10-19T07:55:11;37.70;;;19.77;;
61250;SDS011;47126;47.508;8.590;2023-10-19T07:57:38;32.92;;;19.17;;
61250;SDS011;47126;47.508;8.590;2023-10-19T08:00:06;30.10;;;17.42;;
61250;SDS011;47126;47.508;8.590;2023-10-19T08:02:35;30.10;;;17.80;;
61250;SDS011;47126;47.508;8.590;2023-10-19T08:05:03;30.67;;;17.42;;
61250;SDS011;47126;47.508;8.590;2023-10-19T08:07:29;30.48;;;18.27;;
61250;SDS011;47126;47.508;8.590;2023-10-19T08:09:55;35.35;;;18.33;;
61250;SDS011;47126;47.508;8.590;2023-10-19T08:12:25;27.17;;;16.15;;
61250;SDS011;47126;47.508;8.590;2023-10-19T08:14:54;30.15;;;17.25;;
61250;SDS011;47126;47.508;8.590;2023-10-19T08:17:21;35.22;;;18.13;;
61250;SDS011;47126;47.508;8.590;2023-10-19T08:19:47;25.88;;;16.10;;
61250;SDS011;47126;47.508;8.590;2023-10-19T08:22:13;33.30;;;18.00;;
61250;SDS011;47126;47.508;8.590;2023-10-19T08:24:39;32.05;;;17.60;;
61250;SDS011;47126;47.508;8.590;2023-10-19T08:27:08;31.95;;;17.10;;
61250;SDS011;47126;47.508;8.590;2023-10-19T08:29:36;29.13;;;16.50;;
61250;SDS011;47126;47.508;8.590;2023-10-19T08:32:02;27.05;;;16.35;;
61250;SDS011;47126;47.508;8.590;2023-10-19T08:34:28;29.88;;;17.48;;
61250;SDS011;47126;47.508;8.590;2023-10-19T08:36:57;29.60;;;17.00;;
61250;SDS011;47126;47.508;8.590;2023-10-19T08:39:24;32.05;;;16.77;;
61250;SDS011;47126;47.508;8.590;2023-10-19T08:41:50;30.48;;;16.42;;
61250;SDS011;47126;47.508;8.590;2023-10-19T08:44:19;33.78;;;17.55;;
61250;SDS011;47126;47.508;8.590;2023-10-19T08:46:45;28.95;;;16.63;;
61250;SDS011;47126;47.508;8.590;2023-10-19T08:49:16;26.08;;;16.98;;
61250;SDS011;47126;47.508;8.590;2023-10-19T08:51:46;29.20;;;14.98;;
61250;SDS011;47126;47.508;8.590;2023-10-19T08:54:13;29.02;;;15.77;;
61250;SDS011;47126;47.508;8.590;2023-10-19T08:56:39;26.50;;;16.23;;
61250;SDS011;47126;47.508;8.590;2023-10-19T08:59:06;25.40;;;14.90;;
61250;SDS011;47126;47.508;8.590;2023-10-19T09:01:32;25.77;;;15.52;;
61250;SDS011;47126;47.508;8.590;2023-10-19T09:04:00;27.88;;;15.85;;
61250;SDS011;47126;47.508;8.590;2023-10-19T09:06:27;26.08;;;15.15;;
61250;SDS011;47126;47.508;8.590;2023-10-19T09:08:54;21.77;;;13.93;;
61250;SDS011;47126;47.508;8.590;2023-10-19T09:11:22;24.40;;;15.18;;
61250;SDS011;47126;47.508;8.590;2023-10-19T09:13:50;21.65;;;13.43;;
61250;SDS011;47126;47.508;8.590;2023-10-19T09:16:18;27.50;;;15.75;;
61250;SDS011;47126;47.508;8.590;2023-10-19T09:18:45;31.45;;;16.88;;
61250;SDS011;47126;47.508;8.590;2023-10-19T09:21:11;27.05;;;16.00;;
61250;SDS011;47126;47.508;8.590;2023-10-19T09:23:37;30.42;;;17.25;;
61250;SDS011;47126;47.508;8.590;2023-10-19T09:26:04;28.02;;;16.67;;
61250;SDS011;47126;47.508;8.590;2023-10-19T09:28:33;29.42;;;17.33;;
61250;SDS011;47126;47.508;8.590;2023-10-19T09:31:01;29.92;;;17.85;;
61250;SDS011;47126;47.508;8.590;2023-10-19T09:33:28;28.85;;;17.48;;
61250;SDS011;47126;47.508;8.590;2023-10-19T09:35:54;31.75;;;16.48;;
61250;SDS011;47126;47.508;8.590;2023-10-19T09:38:25;27.73;;;17.30;;
61250;SDS011;47126;47.508;8.590;2023-10-19T09:40:52;27.98;;;16.75;;
61250;SDS011;47126;47.508;8.590;2023-10-19T09:43:37;36.22;;;20.05;;
61250;SDS011;47126;47.508;8.590;2023-10-19T09:46:06;32.70;;;17.90;;
61250;SDS011;47126;47.508;8.590;2023-10-19T09:48:40;31.35;;;18.33;;
61250;SDS011;47126;47.508;8.590;2023-10-19T09:51:07;30.27;;;17.17;;
61250;SDS011;47126;47.508;8.590;2023-10-19T09:53:34;29.88;;;17.20;;
61250;SDS011;47126;47.508;8.590;2023-10-19T09:56:00;29.00;;;16.92;;
61250;SDS011;47126;47.508;8.590;2023-10-19T09:58:31;27.33;;;17.13;;
61250;SDS011;47126;47.508;8.590;2023-10-19T10:01:00;28.02;;;17.00;;
61250;SDS011;47126;47.508;8.590;2023-10-19T10:03:44;27.75;;;16.70;;
61250;SDS011;47126;47.508;8.590;2023-10-19T10:06:10;30.75;;;18.42;;
61250;SDS011;47126;47.508;8.590;2023-10-19T10:08:43;31.90;;;18.10;;
61250;SDS011;47126;47.508;8.590;2023-10-19T10:14:19;33.72;;;16.88;;
61250;SDS011;47126;47.508;8.590;2023-10-19T10:16:46;27.75;;;17.08;;
61250;SDS011;47126;47.508;8.590;2023-10-19T10:19:13;31.67;;;18.73;;
61250;SDS011;47126;47.508;8.590;2023-10-19T10:22:03;28.45;;;17.48;;
61250;SDS011;47126;47.508;8.590;2023-10-19T10:24:33;29.08;;;17.95;;
61250;SDS011;47126;47.508;8.590;2023-10-19T10:26:59;30.25;;;19.10;;
61250;SDS011;47126;47.508;8.590;2023-10-19T10:29:28;29.90;;;17.15;;
61250;SDS011;47126;47.508;8.590;2023-10-19T10:31:56;33.15;;;17.40;;
61250;SDS011;47126;47.508;8.590;2023-10-19T10:37:00;23.27;;;15.13;;
61250;SDS011;47126;47.508;8.590;2023-10-19T10:39:30;24.25;;;15.13;;
61250;SDS011;47126;47.508;8.590;2023-10-19T10:41:59;24.38;;;14.95;;
61250;SDS011;47126;47.508;8.590;2023-10-19T10:44:39;27.63;;;16.08;;
61250;SDS011;47126;47.508;8.590;2023-10-19T10:47:06;21.20;;;14.18;;
61250;SDS011;47126;47.508;8.590;2023-10-19T10:49:35;22.58;;;14.32;;
61250;SDS011;47126;47.508;8.590;2023-10-19T10:52:01;24.23;;;15.30;;
61250;SDS011;47126;47.508;8.590;2023-10-19T10:54:27;22.75;;;14.57;;
61250;SDS011;47126;47.508;8.590;2023-10-19T10:56:53;21.60;;;14.20;;
61250;SDS011;47126;47.508;8.590;2023-10-19T10:59:19;25.70;;;14.98;;
61250;SDS011;47126;47.508;8.590;2023-10-19T11:01:46;23.98;;;14.98;;
61250;SDS011;47126;47.508;8.590;2023-10-19T11:04:15;26.13;;;16.45;;
61250;SDS011;47126;47.508;8.590;2023-10-19T11:06:47;26.52;;;14.50;;
61250;SDS011;47126;47.508;8.590;2023-10-19T11:09:14;25.05;;;16.40;;
61250;SDS011;47126;47.508;8.590;2023-10-19T11:11:47;27.23;;;15.18;;
61250;SDS011;47126;47.508;8.590;2023-10-19T11:14:14;25.33;;;15.80;;
61250;SDS011;47126;47.508;8.590;2023-10-19T11:16:40;22.80;;;14.13;;
61250;SDS011;47126;47.508;8.590;2023-10-19T11:19:08;20.55;;;13.90;;
61250;SDS011;47126;47.508;8.590;2023-10-19T11:21:35;23.02;;;14.85;;
61250;SDS011;47126;47.508;8.590;2023-10-19T11:24:01;23.95;;;14.02;;
61250;SDS011;47126;47.508;8.590;2023-10-19T11:26:27;20.58;;;13.93;;
61250;SDS011;47126;47.508;8.590;2023-10-19T11:28:57;21.58;;;14.27;;
61250;SDS011;47126;47.508;8.590;2023-10-19T11:31:24;21.83;;;14.50;;
61250;SDS011;47126;47.508;8.590;2023-10-19T11:33:51;21.23;;;14.02;;
61250;SDS011;47126;47.508;8.590;2023-10-19T11:36:18;24.05;;;15.23;;
61250;SDS011;47126;47.508;8.590;2023-10-19T11:38:46;28.23;;;15.98;;
61250;SDS011;47126;47.508;8.590;2023-10-19T11:41:12;23.95;;;15.10;;
61250;SDS011;47126;47.508;8.590;2023-10-19T11:43:39;24.67;;;14.77;;
61250;SDS011;47126;47.508;8.590;2023-10-19T11:46:05;27.85;;;15.20;;
61250;SDS011;47126;47.508;8.590;2023-10-19T11:48:35;22.42;;;13.77;;
61250;SDS011;47126;47.508;8.590;2023-10-19T11:51:05;25.02;;;15.85;;
61250;SDS011;47126;47.508;8.590;2023-10-19T11:53:32;22.33;;;14.82;;
61250;SDS011;47126;47.508;8.590;2023-10-19T11:56:06;20.48;;;14.27;;
61250;SDS011;47126;47.508;8.590;2023-10-19T11:58:35;23.80;;;13.30;;
61250;SDS011;47126;47.508;8.590;2023-10-19T12:01:04;21.83;;;14.27;;
61250;SDS011;47126;47.508;8.590;2023-10-19T12:03:33;21.92;;;13.10;;
61250;SDS011;47126;47.508;8.590;2023-10-19T12:06:03;21.20;;;13.93;;
61250;SDS011;47126;47.508;8.590;2023-10-19T12:08:32;21.25;;;14.18;;
61250;SDS011;47126;47.508;8.590;2023-10-19T12:10:59;24.73;;;14.60;;
61250;SDS011;47126;47.508;8.590;2023-10-19T12:13:27;21.42;;;14.10;;
61250;SDS011;47126;47.508;8.590;2023-10-19T12:15:53;23.65;;;15.07;;
61250;SDS011;47126;47.508;8.590;2023-10-19T12:18:20;28.65;;;16.00;;
61250;SDS011;47126;47.508;8.590;2023-10-19T12:20:46;25.95;;;16.13;;
61250;SDS011;47126;47.508;8.590;2023-10-19T12:23:13;23.40;;;14.00;;
61250;SDS011;47126;47.508;8.590;2023-10-19T12:25:42;23.75;;;15.02;;
61250;SDS011;47126;47.508;8.590;2023-10-19T12:28:08;23.40;;;14.40;;
61250;SDS011;47126;47.508;8.590;2023-10-19T12:30:38;22.83;;;13.90;;
61250;SDS011;47126;47.508;8.590;2023-10-19T12:33:06;23.67;;;15.48;;
61250;SDS011;47126;47.508;8.590;2023-10-19T12:35:41;22.27;;;14.60;;
61250;SDS011;47126;47.508;8.590;2023-10-19T12:38:13;22.15;;;13.85;;
61250;SDS011;47126;47.508;8.590;2023-10-19T12:40:46;24.55;;;15.07;;
61250;SDS011;47126;47.508;8.590;2023-10-19T12:43:13;22.38;;;14.30;;
61250;SDS011;47126;47.508;8.590;2023-10-19T12:45:39;21.27;;;13.95;;
61250;SDS011;47126;47.508;8.590;2023-10-19T12:48:05;23.67;;;15.02;;
61250;SDS011;47126;47.508;8.590;2023-10-19T12:50:35;23.30;;;14.35;;
61250;SDS011;47126;47.508;8.590;2023-10-19T12:53:07;24.50;;;14.93;;
61250;SDS011;47126;47.508;8.590;2023-10-19T12:55:34;22.55;;;13.90;;
61250;SDS011;47126;47.508;8.590;2023-10-19T12:58:02;22.05;;;14.70;;
61250;SDS011;47126;47.508;8.590;2023-10-19T13:00:34;20.63;;;13.60;;
61250;SDS011;47126;47.508;8.590;2023-10-19T13:03:09;19.80;;;13.07;;
61250;SDS011;47126;47.508;8.590;2023-10-19T13:05:38;21.73;;;14.50;;
61250;SDS011;47126;47.508;8.590;2023-10-19T13:08:06;23.50;;;14.52;;
61250;SDS011;47126;47.508;8.590;2023-10-19T13:10:32;24.45;;;14.85;;
61250;SDS011;47126;47.508;8.590;2023-10-19T13:13:02;22.42;;;15.02;;
61250;SDS011;47126;47.508;8.590;2023-10-19T13:15:29;22.35;;;14.65;;
61250;SDS011;47126;47.508;8.590;2023-10-19T13:17:56;27.60;;;15.77;;
61250;SDS011;47126;47.508;8.590;2023-10-19T13:20:24;21.75;;;14.20;;
61250;SDS011;47126;47.508;8.590;2023-10-19T13:22:51;23.52;;;14.40;;
61250;SDS011;47126;47.508;8.590;2023-10-19T13:25:17;19.52;;;13.00;;
61250;SDS011;47126;47.508;8.590;2023-10-19T13:27:43;24.48;;;14.68;;
61250;SDS011;47126;47.508;8.590;2023-10-19T13:30:11;24.80;;;15.63;;
61250;SDS011;47126;47.508;8.590;2023-10-19T13:32:38;28.00;;;16.90;;
61250;SDS011;47126;47.508;8.590;2023-10-19T13:35:04;22.48;;;14.48;;
61250;SDS011;47126;47.508;8.590;2023-10-19T13:37:32;23.27;;;13.75;;
61250;SDS011;47126;47.508;8.590;2023-10-19T13:39:58;25.95;;;13.60;;
61250;SDS011;47126;47.508;8.590;2023-10-19T13:42:24;19.23;;;12.73;;
61250;SDS011;47126;47.508;8.590;2023-10-19T13:44:50;19.42;;;12.18;;
61250;SDS011;47126;47.508;8.590;2023-10-19T13:47:16;19.15;;;11.73;;
61250;SDS011;47126;47.508;8.590;2023-10-19T13:49:42;16.45;;;9.68;;
61250;SDS011;47126;47.508;8.590;2023-10-19T13:52:08;18.98;;;9.05;;
61250;SDS011;47126;47.508;8.590;2023-10-19T13:54:35;20.20;;;9.77;;
61250;SDS011;47126;47.508;8.590;2023-10-19T13:57:01;16.50;;;10.52;;
61250;SDS011;47126;47.508;8.590;2023-10-19T13:59:30;16.38;;;10.02;;
61250;SDS011;47126;47.508;8.590;2023-10-19T14:01:58;15.52;;;9.50;;
61250;SDS011;47126;47.508;8.590;2023-10-19T14:04:24;17.08;;;9.15;;
61250;SDS011;47126;47.508;8.590;2023-10-19T14:06:50;14.77;;;9.05;;
61250;SDS011;47126;47.508;8.590;2023-10-19T14:09:16;15.48;;;10.30;;
61250;SDS011;47126;47.508;8.590;2023-10-19T14:11:43;16.77;;;10.57;;
61250;SDS011;47126;47.508;8.590;2023-10-19T14:14:12;17.77;;;10.67;;
61250;SDS011;47126;47.508;8.590;2023-10-19T14:16:38;17.27;;;11.30;;
61250;SDS011;47126;47.508;8.590;2023-10-19T14:19:04;18.13;;;10.50;;
61250;SDS011;47126;47.508;8.590;2023-10-19T14:21:30;18.67;;;11.48;;
61250;SDS011;47126;47.508;8.590;2023-10-19T14:24:02;15.10;;;10.60;;
61250;SDS011;47126;47.508;8.590;2023-10-19T14:26:28;17.35;;;10.73;;
61250;SDS011;47126;47.508;8.590;2023-10-19T14:28:55;21.40;;;10.10;;
61250;SDS011;47126;47.508;8.590;2023-10-19T14:31:21;19.17;;;11.27;;
61250;SDS011;47126;47.508;8.590;2023-10-19T14:33:47;22.13;;;13.15;;